createdAt,value
2022-10-02T00:00:16.870Z,1.92
2022-10-02T00:02:53.393Z,1.50
2022-10-02T00:05:27.043Z,1.55
2022-10-02T00:08:09.985Z,1.50
2022-10-02T00:10:44.707Z,1.60
2022-10-02T00:13:23.354Z,2.08
2022-10-02T00:15:50.688Z,1.92
2022-10-02T00:18:22.416Z,3.10
2022-10-02T00:23:44.990Z,2.10
2022-10-02T00:26:20.666Z,1.73
2022-10-02T00:28:54.052Z,1.90
2022-10-02T00:31:54.518Z,1.63
2022-10-02T00:34:49.013Z,1.42
2022-10-02T00:37:36.509Z,1.48
2022-10-02T00:40:28.793Z,1.67
2022-10-02T00:43:17.883Z,2.30
2022-10-02T00:46:03.048Z,1.70
2022-10-02T00:48:47.503Z,1.75
2022-10-02T00:51:44.846Z,2.08
2022-10-02T00:54:14.443Z,2.40
2022-10-02T00:57:07.106Z,2.22
2022-10-02T00:59:39.889Z,1.98
2022-10-02T01:02:06.539Z,1.58
2022-10-02T01:04:38.623Z,2.17
2022-10-02T01:07:08.217Z,2.22
2022-10-02T01:09:35.037Z,2.10
2022-10-02T01:12:02.537Z,1.65
2022-10-02T01:14:37.878Z,2.30
2022-10-02T01:17:07.889Z,2.92
2022-10-02T01:19:40.160Z,2.28
2022-10-02T01:22:25.800Z,2.70
2022-10-02T01:24:53.189Z,2.25
2022-10-02T01:27:19.897Z,2.92
2022-10-02T01:30:00.034Z,3.08
2022-10-02T01:32:29.236Z,2.75
2022-10-02T01:34:57.045Z,3.08
2022-10-02T01:37:28.713Z,2.45
2022-10-02T01:42:25.475Z,2.20
2022-10-02T01:44:52.341Z,2.10
2022-10-02T01:47:47.225Z,2.42
2022-10-02T01:50:28.357Z,2.83
2022-10-02T01:53:07.773Z,2.15
2022-10-02T01:55:56.494Z,2.85
2022-10-02T01:59:08.838Z,2.28
2022-10-02T02:01:43.801Z,2.60
2022-10-02T02:04:24.851Z,2.90
2022-10-02T02:07:02.129Z,2.53
2022-10-02T02:10:04.396Z,2.58
2022-10-02T02:13:08.014Z,2.58
2022-10-02T02:16:09.089Z,2.80
2022-10-02T02:18:40.498Z,2.78
2022-10-02T02:21:12.378Z,2.80
2022-10-02T02:23:41.314Z,2.47
2022-10-02T02:26:12.489Z,2.53
2022-10-02T02:28:51.173Z,2.92
2022-10-02T02:31:22.233Z,3.33
2022-10-02T02:33:55.369Z,3.40
2022-10-02T02:36:26.638Z,3.25
2022-10-02T02:39:00.238Z,3.13
2022-10-02T02:41:31.645Z,2.72
2022-10-02T02:44:12.109Z,2.83
2022-10-02T02:47:06.998Z,2.80
2022-10-02T02:49:46.647Z,2.83
2022-10-02T02:52:22.376Z,2.97
2022-10-02T02:55:00.207Z,3.25
2022-10-02T02:57:37.794Z,3.85
2022-10-02T03:00:07.051Z,3.00
2022-10-02T03:02:34.123Z,2.88
2022-10-02T03:05:00.916Z,3.08
2022-10-02T03:07:27.624Z,3.05
2022-10-02T03:10:08.405Z,4.45
2022-10-02T03:13:11.208Z,2.63
2022-10-02T03:16:03.735Z,2.92
2022-10-02T03:18:48.122Z,3.30
2022-10-02T03:21:43.061Z,2.92
2022-10-02T03:24:42.432Z,3.42
2022-10-02T03:27:20.520Z,2.70
2022-10-02T03:29:53.084Z,3.13
2022-10-02T03:32:21.320Z,3.05
2022-10-02T03:34:48.723Z,3.15
2022-10-02T03:37:15.892Z,3.42
2022-10-02T03:39:45.906Z,3.22
2022-10-02T03:42:14.736Z,3.35
2022-10-02T03:44:42.053Z,2.90
2022-10-02T03:47:08.674Z,2.83
2022-10-02T03:49:35.373Z,3.15
2022-10-02T03:52:02.124Z,2.67
2022-10-02T03:54:33.854Z,3.63
2022-10-02T03:59:47.344Z,3.47
2022-10-02T04:02:19.497Z,3.20
2022-10-02T04:04:51.080Z,2.75
2022-10-02T04:07:24.442Z,3.15
2022-10-02T04:09:57.171Z,2.55
2022-10-02T04:12:30.966Z,3.38
2022-10-02T04:15:00.316Z,2.60
2022-10-02T04:17:46.737Z,2.92
2022-10-02T04:20:23.389Z,2.40
2022-10-02T04:22:56.103Z,2.75
2022-10-02T04:25:27.500Z,2.90
2022-10-02T04:28:02.598Z,2.88
2022-10-02T04:30:30.175Z,2.58
2022-10-02T04:33:06.448Z,2.40
2022-10-02T04:35:56.449Z,2.10
2022-10-02T04:38:47.626Z,2.20
2022-10-02T04:41:29.324Z,2.37
2022-10-02T04:44:52.310Z,3.00
2022-10-02T04:47:57.053Z,2.97
2022-10-02T04:50:50.091Z,2.00
2022-10-02T04:53:37.633Z,2.67
2022-10-02T04:56:37.097Z,2.35
2022-10-02T04:59:19.107Z,2.35
2022-10-02T05:02:01.932Z,2.72
2022-10-02T05:04:46.621Z,1.88
2022-10-02T05:07:44.193Z,2.72
2022-10-02T05:10:29.363Z,2.50
2022-10-02T05:13:13.280Z,2.45
2022-10-02T05:15:52.762Z,2.63
2022-10-02T05:18:43.304Z,2.35
2022-10-02T05:21:27.721Z,2.55
2022-10-02T05:23:57.121Z,2.22
2022-10-02T05:26:59.545Z,2.42
2022-10-02T05:29:31.677Z,2.53
2022-10-02T05:32:26.897Z,2.15
2022-10-02T05:34:56.567Z,2.45
2022-10-02T05:37:41.904Z,2.85
2022-10-02T05:40:36.615Z,2.42
2022-10-02T05:43:23.244Z,2.40
2022-10-02T05:45:59.814Z,2.40
2022-10-02T05:48:36.591Z,2.20
2022-10-02T05:51:10.100Z,2.85
2022-10-02T05:53:43.775Z,1.92
2022-10-02T05:56:24.052Z,2.30
2022-10-02T05:59:00.434Z,2.00
2022-10-02T06:01:49.783Z,1.95
2022-10-02T06:04:23.806Z,2.22
2022-10-02T06:06:55.080Z,2.17
2022-10-02T06:09:33.562Z,2.72
2022-10-02T06:12:16.014Z,2.60
2022-10-02T06:15:04.085Z,2.42
2022-10-02T06:17:37.567Z,2.08
2022-10-02T06:20:21.641Z,2.65
2022-10-02T06:23:01.502Z,2.75
2022-10-02T06:25:43.130Z,2.67
2022-10-02T06:28:35.937Z,2.50
2022-10-02T06:31:11.258Z,2.50
2022-10-02T06:33:38.244Z,2.70
2022-10-02T06:36:17.931Z,2.92
2022-10-02T06:39:00.603Z,2.30
2022-10-02T06:41:46.190Z,2.65
2022-10-02T06:44:16.948Z,2.63
2022-10-02T06:46:57.286Z,2.60
2022-10-02T06:50:10.413Z,2.40
2022-10-02T06:52:52.501Z,2.30
2022-10-02T06:55:21.845Z,2.40
2022-10-02T06:58:19.579Z,2.90
2022-10-02T07:01:03.114Z,2.42
2022-10-02T07:03:50.051Z,2.35
2022-10-02T07:06:53.000Z,3.10
2022-10-02T07:09:53.041Z,2.88
2022-10-02T07:12:57.589Z,3.13
2022-10-02T07:16:22.952Z,3.85
2022-10-02T07:18:58.684Z,2.85
2022-10-02T07:21:53.993Z,3.60
2022-10-02T07:24:58.391Z,2.58
2022-10-02T07:27:43.777Z,3.00
2022-10-02T07:30:16.266Z,3.40
2022-10-02T07:33:07.393Z,2.78
2022-10-02T07:35:38.510Z,3.40
2022-10-02T07:38:43.194Z,3.15
2022-10-02T07:41:13.024Z,2.78
2022-10-02T07:44:13.749Z,2.90
2022-10-02T07:47:08.573Z,2.95
2022-10-02T07:49:53.629Z,2.40
2022-10-02T07:52:42.282Z,3.53
2022-10-02T07:55:19.598Z,2.95
2022-10-02T07:58:01.704Z,2.85
2022-10-02T08:00:32.273Z,3.08
2022-10-02T08:03:21.114Z,2.55
2022-10-02T08:05:51.060Z,3.45
2022-10-02T08:08:38.619Z,2.63
2022-10-02T08:11:18.441Z,3.03
2022-10-02T08:14:00.828Z,3.40
2022-10-02T08:16:35.622Z,2.78
2022-10-02T08:19:07.127Z,2.50
2022-10-02T08:21:41.068Z,3.10
2022-10-02T08:24:23.564Z,2.63
2022-10-02T08:26:59.099Z,3.10
2022-10-02T08:29:41.844Z,2.58
2022-10-02T08:32:13.670Z,3.08
2022-10-02T08:34:41.945Z,2.70
2022-10-02T08:37:24.820Z,2.85
2022-10-02T08:40:17.466Z,2.75
2022-10-02T08:42:58.434Z,2.20
2022-10-02T08:45:57.845Z,2.23
2022-10-02T08:49:18.612Z,2.30
2022-10-02T08:52:09.985Z,2.72
2022-10-02T08:55:13.657Z,2.58
2022-10-02T08:58:03.402Z,2.40
2022-10-02T09:00:41.986Z,2.65
2022-10-02T09:03:45.747Z,3.05
2022-10-02T09:06:27.290Z,2.15
2022-10-02T09:09:15.380Z,2.30
2022-10-02T09:11:53.986Z,2.67
2022-10-02T09:14:52.063Z,2.88
2022-10-02T09:17:58.919Z,2.05
2022-10-02T09:20:40.670Z,2.35
2022-10-02T09:25:59.121Z,2.40
2022-10-02T09:31:30.141Z,2.33
2022-10-02T09:34:03.473Z,2.63
2022-10-02T09:36:47.484Z,2.22
2022-10-02T09:39:32.547Z,3.17
2022-10-02T09:42:11.138Z,2.78
2022-10-02T09:45:01.357Z,3.10
2022-10-02T09:47:51.553Z,2.65
2022-10-02T09:50:56.240Z,2.70
2022-10-02T09:53:25.943Z,2.35
2022-10-02T09:56:20.873Z,2.42
2022-10-02T09:59:12.343Z,2.50
2022-10-02T10:02:02.039Z,2.60
2022-10-02T10:05:01.347Z,2.40
2022-10-02T10:07:39.435Z,2.83
2022-10-02T10:10:38.137Z,3.50
2022-10-02T10:13:41.978Z,2.95
2022-10-02T10:16:30.216Z,2.35
2022-10-02T10:19:38.224Z,2.38
2022-10-02T10:22:23.672Z,2.63
2022-10-02T10:25:28.229Z,2.63
2022-10-02T10:28:25.089Z,2.33
2022-10-02T10:30:55.329Z,1.65
2022-10-02T10:33:43.226Z,2.55
2022-10-02T10:36:44.512Z,2.20
2022-10-02T10:39:38.493Z,2.13
2022-10-02T10:42:17.209Z,2.33
2022-10-02T10:44:55.805Z,2.05
2022-10-02T10:47:28.232Z,2.15
2022-10-02T10:50:02.299Z,2.58
2022-10-02T10:53:08.718Z,2.30
2022-10-02T10:56:00.743Z,2.20
2022-10-02T10:58:52.780Z,1.98
2022-10-02T11:01:55.524Z,1.60
2022-10-02T11:04:52.850Z,1.90
2022-10-02T11:07:40.234Z,2.38
2022-10-02T11:10:11.393Z,2.47
2022-10-02T11:12:53.665Z,1.92
2022-10-02T11:15:31.757Z,1.77
2022-10-02T11:18:06.936Z,2.63
2022-10-02T11:20:53.374Z,2.03
2022-10-02T11:23:34.846Z,2.78
2022-10-02T11:26:27.458Z,2.80
2022-10-02T11:29:18.062Z,2.35
2022-10-02T11:32:06.386Z,3.33
2022-10-02T11:34:48.474Z,2.72
2022-10-02T11:37:39.019Z,2.45
2022-10-02T11:40:14.924Z,2.25
2022-10-02T11:43:00.554Z,2.60
2022-10-02T11:45:38.339Z,2.40
2022-10-02T11:48:41.064Z,3.10
2022-10-02T11:51:22.181Z,3.20
2022-10-02T11:54:28.133Z,2.92
2022-10-02T11:57:14.226Z,2.83
2022-10-02T12:00:14.003Z,2.95
2022-10-02T12:03:14.258Z,3.42
2022-10-02T12:05:59.798Z,2.50
2022-10-02T12:08:35.383Z,1.85
2022-10-02T12:11:34.584Z,2.42
2022-10-02T12:14:16.661Z,2.67
2022-10-02T12:20:14.861Z,2.53
2022-10-02T12:23:40.826Z,2.50
2022-10-02T12:26:50.105Z,2.25
2022-10-02T12:29:31.488Z,2.47
2022-10-02T12:32:36.278Z,2.25
2022-10-02T12:35:20.953Z,1.83
2022-10-02T12:37:53.937Z,2.00
2022-10-02T12:40:24.068Z,2.53
2022-10-02T12:43:02.683Z,2.10
2022-10-02T12:45:47.765Z,1.80
2022-10-02T12:48:26.804Z,2.10
2022-10-02T12:51:16.177Z,1.92
2022-10-02T12:54:20.220Z,2.30
2022-10-02T12:57:34.366Z,2.10
2022-10-02T13:00:17.110Z,2.30
2022-10-02T13:03:05.652Z,1.60
2022-10-02T13:05:53.586Z,1.90
2022-10-02T13:08:39.708Z,1.92
2022-10-02T13:11:31.040Z,1.70
2022-10-02T13:14:17.923Z,2.10
2022-10-02T13:17:26.153Z,2.22
2022-10-02T13:19:53.676Z,2.10
2022-10-02T13:22:34.035Z,2.15
2022-10-02T13:25:19.162Z,2.13
2022-10-02T13:27:55.180Z,1.95
2022-10-02T13:30:23.906Z,2.00
2022-10-02T13:32:53.891Z,2.00
2022-10-02T13:35:29.618Z,2.35
2022-10-02T13:38:14.606Z,2.35
2022-10-02T13:40:55.093Z,1.98
2022-10-02T13:43:30.392Z,2.05
2022-10-02T13:46:07.524Z,2.22
2022-10-02T13:48:55.170Z,2.13
2022-10-02T13:51:49.738Z,2.38
2022-10-02T13:54:48.175Z,1.80
2022-10-02T13:57:33.310Z,2.30
2022-10-02T14:00:30.709Z,2.30
2022-10-02T14:03:09.871Z,1.95
2022-10-02T14:06:33.502Z,2.03
2022-10-02T14:09:03.026Z,2.05
2022-10-02T14:12:03.793Z,2.17
2022-10-02T14:14:48.520Z,2.60
2022-10-02T14:17:42.984Z,2.33
2022-10-02T14:20:21.724Z,2.33
2022-10-02T14:22:48.338Z,2.88
2022-10-02T14:25:48.568Z,2.30
2022-10-02T14:28:27.113Z,2.50
2022-10-02T14:31:21.636Z,2.40
2022-10-02T14:34:14.739Z,2.67
2022-10-02T14:37:03.119Z,2.58
2022-10-02T14:39:39.297Z,2.08
2022-10-02T14:42:22.779Z,2.20
2022-10-02T14:45:07.960Z,2.45
2022-10-02T14:47:42.258Z,2.55
2022-10-02T14:50:14.866Z,1.88
2022-10-02T14:52:44.222Z,2.33
2022-10-02T14:55:39.279Z,2.08
2022-10-02T14:58:28.210Z,3.58
2022-10-02T15:01:13.433Z,2.35
2022-10-02T15:04:01.126Z,2.60
2022-10-02T15:07:00.299Z,2.05
2022-10-02T15:09:42.585Z,2.05
2022-10-02T15:12:14.871Z,1.95
2022-10-02T15:15:12.452Z,2.17
2022-10-02T15:18:11.197Z,2.10
2022-10-02T15:21:00.422Z,2.45
2022-10-02T15:23:32.869Z,2.20
2022-10-02T15:26:11.943Z,2.08
2022-10-02T15:29:06.222Z,2.22
2022-10-02T15:31:32.894Z,2.38
2022-10-02T15:34:20.210Z,1.92
2022-10-02T15:37:01.901Z,1.88
2022-10-02T15:42:05.568Z,1.85
2022-10-02T15:44:53.281Z,2.50
2022-10-02T15:47:35.619Z,2.67
2022-10-02T15:50:23.970Z,2.25
2022-10-02T15:53:23.246Z,1.88
2022-10-02T15:56:01.635Z,2.75
2022-10-02T15:58:59.469Z,2.45
2022-10-02T16:01:56.791Z,2.60
2022-10-02T16:04:44.005Z,2.15
2022-10-02T16:07:36.627Z,2.47
2022-10-02T16:10:13.399Z,2.40
2022-10-02T16:13:06.732Z,2.88
2022-10-02T16:16:14.507Z,2.45
2022-10-02T16:19:11.701Z,2.70
2022-10-02T16:22:18.099Z,2.00
2022-10-02T16:25:14.337Z,2.35
2022-10-02T16:27:58.939Z,2.58
2022-10-02T16:30:27.628Z,2.42
2022-10-02T16:33:26.193Z,1.90
2022-10-02T16:36:21.140Z,2.20
2022-10-02T16:39:02.335Z,2.10
2022-10-02T16:41:38.326Z,2.30
2022-10-02T16:44:32.574Z,2.17
2022-10-02T16:47:14.926Z,2.55
2022-10-02T16:50:09.163Z,2.08
2022-10-02T16:52:57.157Z,2.40
2022-10-02T16:55:29.490Z,1.88
2022-10-02T16:58:19.093Z,2.58
2022-10-02T17:00:57.402Z,2.83
2022-10-02T17:03:38.758Z,2.50
2022-10-02T17:06:29.472Z,2.58
2022-10-02T17:09:12.181Z,2.40
2022-10-02T17:11:57.495Z,2.38
2022-10-02T17:14:39.745Z,2.90
2022-10-02T17:17:18.260Z,3.22
2022-10-02T17:19:47.558Z,3.58
2022-10-02T17:22:37.972Z,2.35
2022-10-02T17:25:27.211Z,3.35
2022-10-02T17:28:25.876Z,3.55
2022-10-02T17:31:01.953Z,4.50
2022-10-02T17:33:39.954Z,3.75
2022-10-02T17:36:13.569Z,10.23
2022-10-02T17:38:59.852Z,18.05
2022-10-02T17:41:42.494Z,6.88
2022-10-02T17:44:56.067Z,4.03
2022-10-02T17:47:28.749Z,3.60
2022-10-02T17:50:04.522Z,3.17
2022-10-02T17:53:07.109Z,3.60
2022-10-02T17:56:17.227Z,3.13
2022-10-02T17:58:56.512Z,2.75
2022-10-02T18:01:42.469Z,3.40
2022-10-02T18:04:21.936Z,2.88
2022-10-02T18:07:24.050Z,2.83
2022-10-02T18:13:10.955Z,2.67
2022-10-02T18:15:43.128Z,9.77
2022-10-02T18:18:37.453Z,13.38
2022-10-02T18:21:16.064Z,6.60
2022-10-02T18:23:54.622Z,5.90
2022-10-02T18:26:45.970Z,4.80
2022-10-02T18:29:43.938Z,4.38
2022-10-02T18:32:26.337Z,3.38
2022-10-02T18:34:55.880Z,3.63
2022-10-02T18:37:54.540Z,3.78
2022-10-02T18:40:27.738Z,4.53
2022-10-02T18:43:15.631Z,5.22
2022-10-02T18:46:07.654Z,4.93
2022-10-02T18:49:01.945Z,5.80
2022-10-02T18:51:28.581Z,5.55
2022-10-02T18:54:02.039Z,5.10
2022-10-02T18:57:07.387Z,6.00
2022-10-02T18:59:36.789Z,5.65
2022-10-02T19:02:23.646Z,6.20
2022-10-02T19:04:50.312Z,10.20
2022-10-02T19:07:27.244Z,10.75
2022-10-02T19:10:21.558Z,8.90
2022-10-02T19:12:53.614Z,8.18
2022-10-02T19:15:27.813Z,8.00
2022-10-02T19:18:03.599Z,8.00
2022-10-02T19:21:08.302Z,7.38
2022-10-02T19:24:01.294Z,8.35
2022-10-02T19:26:35.405Z,8.52
2022-10-02T19:29:41.481Z,7.93
2022-10-02T19:32:16.969Z,7.45
2022-10-02T19:34:44.027Z,9.23
2022-10-02T19:37:15.698Z,12.20
2022-10-02T19:39:51.900Z,14.15
2022-10-02T19:42:25.551Z,11.95
2022-10-02T19:45:06.628Z,10.88
2022-10-02T19:48:04.114Z,8.97
2022-10-02T19:50:41.458Z,9.73
2022-10-02T19:53:19.712Z,9.20
2022-10-02T19:55:51.654Z,9.02
2022-10-02T19:58:28.737Z,9.52
2022-10-02T20:00:56.016Z,8.88
2022-10-02T20:03:25.200Z,8.75
2022-10-02T20:05:57.187Z,7.90
2022-10-02T20:08:36.761Z,6.47
2022-10-02T20:11:39.158Z,6.13
2022-10-02T20:14:21.625Z,7.05
2022-10-02T20:17:07.346Z,6.65
2022-10-02T20:19:39.239Z,6.93
2022-10-02T20:22:16.165Z,7.00
2022-10-02T20:25:14.488Z,7.18
2022-10-02T20:27:43.785Z,7.53
2022-10-02T20:30:19.208Z,7.43
2022-10-02T20:33:10.921Z,8.02
2022-10-02T20:35:45.052Z,8.57
2022-10-02T20:38:21.177Z,8.05
2022-10-02T20:40:53.173Z,8.55
2022-10-02T20:43:48.005Z,8.80
2022-10-02T20:46:23.290Z,8.50
2022-10-02T20:49:17.721Z,7.47
2022-10-02T20:52:14.607Z,7.95
2022-10-02T20:54:54.000Z,8.35
2022-10-02T20:57:59.637Z,7.75
2022-10-02T21:00:28.800Z,7.03
2022-10-02T21:03:22.122Z,7.20
2022-10-02T21:06:10.438Z,5.05
2022-10-02T21:08:58.294Z,4.15
2022-10-02T21:11:40.922Z,3.75
2022-10-02T21:14:28.454Z,4.03
2022-10-02T21:17:27.569Z,3.92
2022-10-02T21:20:49.848Z,3.50
2022-10-02T21:23:21.838Z,3.47
2022-10-02T21:26:27.040Z,3.22
2022-10-02T21:29:25.188Z,3.42
2022-10-02T21:32:22.973Z,3.20
2022-10-02T21:35:30.453Z,3.22
2022-10-02T21:38:21.677Z,2.95
2022-10-02T21:41:21.275Z,3.10
2022-10-02T21:44:03.619Z,3.05
2022-10-02T21:46:36.298Z,3.50
2022-10-02T21:49:21.033Z,3.92
2022-10-02T21:52:21.538Z,3.78
2022-10-02T21:55:09.941Z,3.78
2022-10-02T21:57:56.426Z,5.07
2022-10-02T22:00:27.903Z,4.97
2022-10-02T22:03:19.407Z,4.55
2022-10-02T22:05:55.877Z,3.80
2022-10-02T22:08:32.537Z,5.13
2022-10-02T22:11:36.674Z,4.28
2022-10-02T22:14:19.077Z,4.38
2022-10-02T22:16:59.160Z,4.13
2022-10-02T22:19:31.710Z,4.00
2022-10-02T22:22:17.339Z,4.55
2022-10-02T22:24:48.523Z,4.35
2022-10-02T22:27:36.351Z,3.70
2022-10-02T22:30:03.917Z,3.90
2022-10-02T22:33:00.276Z,4.20
2022-10-02T22:36:03.881Z,3.58
2022-10-02T22:38:47.347Z,3.33
2022-10-02T22:41:19.620Z,4.45
2022-10-02T22:44:09.118Z,4.18
2022-10-02T22:46:51.156Z,4.10
2022-10-02T22:49:36.745Z,4.13
2022-10-02T22:52:21.674Z,3.08
2022-10-02T22:54:57.269Z,2.95
2022-10-02T22:57:43.389Z,3.15
2022-10-02T23:00:19.966Z,3.35
2022-10-02T23:02:58.149Z,2.83
2022-10-02T23:05:40.229Z,3.42
2022-10-02T23:08:06.808Z,3.80
2022-10-02T23:10:51.085Z,4.00
2022-10-02T23:13:33.278Z,4.03
2022-10-02T23:16:12.908Z,3.60
2022-10-02T23:18:42.360Z,3.25
2022-10-02T23:21:24.073Z,2.58
2022-10-02T23:24:00.516Z,2.90
2022-10-02T23:26:38.407Z,2.65
2022-10-02T23:29:44.863Z,2.13
2022-10-02T23:32:42.062Z,2.40
2022-10-02T23:35:35.383Z,2.22
2022-10-02T23:38:37.436Z,2.75
2022-10-02T23:41:39.395Z,1.77
2022-10-02T23:46:51.558Z,2.30
2022-10-02T23:49:22.802Z,2.20
2022-10-02T23:52:14.411Z,1.70
2022-10-02T23:55:07.132Z,2.08
2022-10-02T23:58:00.564Z,2.17
